Time,TemperatureF,DewpointF,PressureIn,WindDirection,WindDirectionDegrees,WindSpeedMPH,WindSpeedGustMPH,Humidity,HourlyPrecipIn,Conditions,Clouds,dailyrainin,SoftwareType,DateUTC
2013-04-16 00:03:00,56.0,52.0,-100.00,SE,136,6.0,8.0,84,0.00,,,0.98,,2013-04-16 04:03:00,
2013-04-16 00:13:00,56.0,52.0,-100.00,SE,136,6.0,8.0,84,0.00,,,0.98,,2013-04-16 04:13:00,
2013-04-16 00:23:00,56.0,52.0,-100.00,SE,134,4.0,6.0,85,0.00,,,0.98,,2013-04-16 04:23:00,
2013-04-16 00:33:00,56.0,52.0,-100.00,SE,134,4.0,6.0,85,0.00,,,0.98,,2013-04-16 04:33:00,
2013-04-16 00:42:00,56.0,52.0,-100.00,SW,223,1.0,2.0,85,0.00,,,0.97,,2013-04-16 04:42:00,
2013-04-16 00:53:00,56.0,52.0,-100.00,SW,223,1.0,2.0,85,0.00,,,0.97,,2013-04-16 04:53:00,
2013-04-16 01:03:00,56.0,52.0,-100.00,South,188,2.0,4.0,86,0.00,,,0.97,,2013-04-16 05:03:00,
2013-04-16 01:12:00,56.0,52.0,-100.00,South,188,2.0,4.0,86,0.00,,,0.97,,2013-04-16 05:12:00,
2013-04-16 01:22:00,56.0,52.0,-100.00,South,188,5.0,7.0,87,0.00,,,0.95,,2013-04-16 05:22:00,
2013-04-16 01:32:00,56.0,52.0,-100.00,South,188,5.0,7.0,87,0.00,,,0.95,,2013-04-16 05:32:00,
2013-04-16 01:42:00,56.0,53.0,-100.00,SSE,157,7.0,10.0,90,0.00,,,0.92,,2013-04-16 05:42:00,
2013-04-16 01:52:00,56.0,53.0,-100.00,SSE,157,7.0,10.0,90,0.00,,,0.92,,2013-04-16 05:52:00,
2013-04-16 02:02:00,56.0,53.0,-100.00,SSE,157,7.0,10.0,90,0.00,,,0.92,,2013-04-16 06:02:00,
2013-04-16 02:22:00,55.0,53.0,-100.00,SSE,161,8.0,9.0,93,0.00,,,0.82,,2013-04-16 06:22:00,
2013-04-16 02:32:00,55.0,53.0,-100.00,South,174,6.0,8.0,94,0.00,,,0.77,,2013-04-16 06:32:00,
2013-04-16 02:42:00,55.0,53.0,-100.00,South,174,6.0,8.0,94,0.00,,,0.77,,2013-04-16 06:42:00,
2013-04-16 02:52:00,55.0,53.0,-100.00,South,174,6.0,8.0,94,0.00,,,0.77,,2013-04-16 06:52:00,
2013-04-16 03:02:00,55.0,53.0,-100.00,SSE,167,6.0,9.0,94,0.00,,,0.70,,2013-04-16 07:02:00,
2013-04-16 03:12:00,55.0,53.0,-100.00,SSE,167,6.0,9.0,94,0.00,,,0.70,,2013-04-16 07:12:00,
2013-04-16 03:22:00,55.0,54.0,-100.00,South,181,6.0,8.0,95,0.00,,,0.64,,2013-04-16 07:22:00,
2013-04-16 03:32:00,55.0,54.0,-100.00,South,181,6.0,8.0,95,0.00,,,0.64,,2013-04-16 07:32:00,
2013-04-16 03:42:00,55.0,53.0,-100.00,SSW,192,5.0,7.0,95,0.00,,,0.59,,2013-04-16 07:42:00,
2013-04-16 03:53:00,55.0,53.0,-100.00,SSW,192,5.0,7.0,95,0.00,,,0.59,,2013-04-16 07:53:00,
2013-04-16 04:02:00,55.0,53.0,-100.00,South,189,5.0,6.0,95,0.00,,,0.53,,2013-04-16 08:02:00,
2013-04-16 04:12:00,55.0,53.0,-100.00,South,189,5.0,6.0,95,0.00,,,0.53,,2013-04-16 08:12:00,
2013-04-16 04:22:00,55.0,53.0,-100.00,South,189,5.0,7.0,95,0.00,,,0.47,,2013-04-16 08:22:00,
2013-04-16 04:32:00,55.0,53.0,-100.00,South,189,5.0,7.0,95,0.00,,,0.47,,2013-04-16 08:32:00,
2013-04-16 04:42:00,55.0,53.0,-100.00,SSW,196,4.0,5.0,96,0.00,,,0.39,,2013-04-16 08:42:00,
2013-04-16 04:52:00,55.0,53.0,-100.00,SSW,196,4.0,5.0,96,0.00,,,0.39,,2013-04-16 08:52:00,
2013-04-16 05:02:00,55.0,53.0,-100.00,SSW,199,3.0,4.0,96,0.00,,,0.36,,2013-04-16 09:02:00,
2013-04-16 05:12:00,55.0,53.0,-100.00,SSW,199,3.0,4.0,96,0.00,,,0.36,,2013-04-16 09:12:00,
2013-04-16 05:22:00,55.0,54.0,-100.00,South,191,3.0,4.0,96,0.00,,,0.35,,2013-04-16 09:22:00,
2013-04-16 05:33:00,55.0,54.0,-100.00,South,191,3.0,4.0,96,0.00,,,0.35,,2013-04-16 09:33:00,
2013-04-16 05:43:00,55.0,54.0,-100.00,South,181,3.0,4.0,96,0.00,,,0.32,,2013-04-16 09:43:00,
2013-04-16 05:53:00,55.0,54.0,-100.00,South,181,3.0,4.0,96,0.00,,,0.32,,2013-04-16 09:53:00,
2013-04-16 06:03:00,55.0,54.0,-100.00,SSW,206,2.0,3.0,96,0.00,,,0.27,,2013-04-16 10:03:00,
2013-04-16 06:13:00,55.0,54.0,-100.00,SSW,206,2.0,3.0,96,0.00,,,0.27,,2013-04-16 10:13:00,
2013-04-16 06:23:00,55.0,54.0,-100.00,SW,215,2.0,3.0,96,0.00,,,0.23,,2013-04-16 10:23:00,
2013-04-16 06:33:00,55.0,54.0,-100.00,SW,215,2.0,3.0,96,0.00,,,0.23,,2013-04-16 10:33:00,
2013-04-16 06:42:00,55.0,54.0,-100.00,South,191,3.0,4.0,96,0.00,,,0.21,,2013-04-16 10:42:00,
2013-04-16 06:53:00,55.0,54.0,-100.00,South,191,3.0,4.0,96,0.00,,,0.21,,2013-04-16 10:53:00,
2013-04-16 07:03:00,55.0,54.0,-100.00,South,189,5.0,6.0,96,0.00,,,0.19,,2013-04-16 11:03:00,
2013-04-16 07:12:00,55.0,54.0,-100.00,South,189,5.0,6.0,96,0.00,,,0.19,,2013-04-16 11:12:00,
2013-04-16 07:22:00,55.0,54.0,-100.00,South,179,5.0,6.0,97,0.00,,,0.14,,2013-04-16 11:22:00,
2013-04-16 07:32:00,55.0,54.0,-100.00,South,179,5.0,6.0,97,0.00,,,0.14,,2013-04-16 11:32:00,
2013-04-16 07:42:00,55.0,54.0,-100.00,South,174,4.0,5.0,97,0.00,,,0.14,,2013-04-16 11:42:00,
2013-04-16 07:53:00,55.0,54.0,-100.00,South,174,4.0,5.0,97,0.00,,,0.14,,2013-04-16 11:53:00,
2013-04-16 08:02:00,55.0,54.0,-100.00,SSE,161,4.0,6.0,97,0.00,,,0.12,,2013-04-16 12:02:00,
2013-04-16 08:12:00,55.0,54.0,-100.00,SSE,161,4.0,6.0,97,0.00,,,0.12,,2013-04-16 12:12:00,
2013-04-16 08:22:00,56.0,55.0,-100.00,South,176,5.0,6.0,97,0.00,,,0.09,,2013-04-16 12:22:00,
2013-04-16 08:32:00,56.0,55.0,-100.00,South,176,5.0,6.0,97,0.00,,,0.09,,2013-04-16 12:32:00,
2013-04-16 08:42:00,56.0,55.0,-100.00,South,171,4.0,5.0,97,0.00,,,0.06,,2013-04-16 12:42:00,
2013-04-16 08:52:00,56.0,55.0,-100.00,South,171,4.0,5.0,97,0.00,,,0.06,,2013-04-16 12:52:00,
2013-04-16 09:02:00,56.0,55.0,-100.00,South,176,3.0,4.0,97,0.00,,,0.05,,2013-04-16 13:02:00,
2013-04-16 09:12:00,56.0,55.0,-100.00,South,176,3.0,4.0,97,0.00,,,0.05,,2013-04-16 13:12:00,
2013-04-16 09:22:00,56.0,55.0,-100.00,SW,215,2.0,3.0,97,0.00,,,0.01,,2013-04-16 13:22:00,
2013-04-16 09:32:00,56.0,55.0,-100.00,SW,215,2.0,3.0,97,0.00,,,0.01,,2013-04-16 13:32:00,
2013-04-16 09:42:00,56.0,55.0,-100.00,SSW,198,3.0,4.0,97,0.00,,,0.00,,2013-04-16 13:42:00,
2013-04-16 09:52:00,56.0,55.0,-100.00,SSW,198,3.0,4.0,97,0.00,,,0.00,,2013-04-16 13:52:00,
2013-04-16 10:02:00,56.0,55.0,-100.00,SSW,198,3.0,4.0,97,0.00,,,0.00,,2013-04-16 14:02:00,
2013-04-16 10:12:00,57.0,56.0,-100.00,South,185,3.0,5.0,97,0.00,,,0.00,,2013-04-16 14:12:00,
2013-04-16 10:22:00,57.0,56.0,-100.00,South,175,4.0,6.0,96,0.00,,,0.00,,2013-04-16 14:22:00,
2013-04-16 10:32:00,57.0,56.0,-100.00,South,175,4.0,6.0,96,0.00,,,0.00,,2013-04-16 14:32:00,
2013-04-16 10:42:00,57.0,56.0,-100.00,SSW,195,4.0,5.0,96,0.00,,,0.00,,2013-04-16 14:42:00,
2013-04-16 10:52:00,57.0,56.0,-100.00,SSW,195,4.0,5.0,96,0.00,,,0.00,,2013-04-16 14:52:00,
2013-04-16 11:02:00,58.0,56.0,-100.00,South,178,5.0,7.0,96,0.00,,,0.00,,2013-04-16 15:02:00,
2013-04-16 11:12:00,58.0,56.0,-100.00,South,178,5.0,7.0,96,0.00,,,0.00,,2013-04-16 15:12:00,
2013-04-16 11:22:00,59.0,57.0,-100.00,South,186,6.0,8.0,94,0.00,,,0.00,,2013-04-16 15:22:00,
2013-04-16 11:33:00,59.0,57.0,-100.00,South,186,6.0,8.0,94,0.00,,,0.00,,2013-04-16 15:33:00,
2013-04-16 11:43:00,61.0,58.0,-100.00,South,178,6.0,8.0,91,0.00,,,0.00,,2013-04-16 15:43:00,
2013-04-16 11:53:00,61.0,58.0,-100.00,South,178,6.0,8.0,91,0.00,,,0.00,,2013-04-16 15:53:00,
2013-04-16 12:03:00,61.0,57.0,-100.00,SSW,193,6.0,9.0,86,0.00,,,0.00,,2013-04-16 16:03:00,
2013-04-16 12:13:00,61.0,57.0,-100.00,SSW,193,6.0,9.0,86,0.00,,,0.00,,2013-04-16 16:13:00,
2013-04-16 12:23:00,63.0,57.0,-100.00,SSW,199,4.0,6.0,82,0.00,,,0.00,,2013-04-16 16:23:00,
2013-04-16 12:33:00,63.0,57.0,-100.00,SSW,199,4.0,6.0,82,0.00,,,0.00,,2013-04-16 16:33:00,
2013-04-16 12:42:00,63.0,57.0,-100.00,SSW,199,4.0,6.0,82,0.00,,,0.00,,2013-04-16 16:42:00,
2013-04-16 14:52:00,70.0,58.0,-100.00,SSE,157,10.0,13.0,66,0.00,,,0.00,,2013-04-16 18:52:00,
2013-04-16 15:02:00,70.0,58.0,-100.00,SSE,157,10.0,13.0,66,0.00,,,0.00,,2013-04-16 19:02:00,
2013-04-16 15:12:00,70.0,58.0,-100.00,SSE,157,10.0,13.0,66,0.00,,,0.00,,2013-04-16 19:12:00,
2013-04-16 15:22:00,70.0,57.0,-100.00,South,171,12.0,17.0,64,0.00,,,0.00,,2013-04-16 19:22:00,
2013-04-16 15:32:00,70.0,57.0,-100.00,South,171,12.0,17.0,64,0.00,,,0.00,,2013-04-16 19:32:00,
2013-04-16 15:42:00,71.0,58.0,-100.00,SSE,147,12.0,18.0,63,0.00,,,0.00,,2013-04-16 19:42:00,
2013-04-16 15:52:00,71.0,58.0,-100.00,SSE,147,12.0,18.0,63,0.00,,,0.00,,2013-04-16 19:52:00,
2013-04-16 16:02:00,71.0,58.0,-100.00,SSE,164,10.0,13.0,63,0.00,,,0.00,,2013-04-16 20:02:00,
2013-04-16 16:13:00,71.0,58.0,-100.00,SSE,164,10.0,13.0,63,0.00,,,0.00,,2013-04-16 20:13:00,
2013-04-16 16:22:00,72.0,58.0,-100.00,SSE,162,11.0,15.0,60,0.00,,,0.00,,2013-04-16 20:22:00,
2013-04-16 16:32:00,72.0,58.0,-100.00,SSE,162,11.0,15.0,60,0.00,,,0.00,,2013-04-16 20:32:00,
2013-04-16 16:42:00,72.0,57.0,-100.00,SSE,155,12.0,16.0,61,0.00,,,0.00,,2013-04-16 20:42:00,
2013-04-16 16:52:00,72.0,57.0,-100.00,SSE,155,12.0,16.0,61,0.00,,,0.00,,2013-04-16 20:52:00,
2013-04-16 17:02:00,73.0,58.0,-100.00,SSE,162,11.0,16.0,59,0.00,,,0.00,,2013-04-16 21:02:00,
2013-04-16 17:12:00,73.0,58.0,-100.00,SSE,162,11.0,16.0,59,0.00,,,0.00,,2013-04-16 21:12:00,
2013-04-16 17:22:00,73.0,59.0,-100.00,SSE,168,8.0,13.0,60,0.00,,,0.00,,2013-04-16 21:22:00,
2013-04-16 17:33:00,73.0,59.0,-100.00,SSE,168,8.0,13.0,60,0.00,,,0.00,,2013-04-16 21:33:00,
2013-04-16 17:43:00,73.0,57.0,-100.00,South,175,11.0,14.0,57,0.00,,,0.00,,2013-04-16 21:43:00,
2013-04-16 17:53:00,73.0,57.0,-100.00,South,175,11.0,14.0,57,0.00,,,0.00,,2013-04-16 21:53:00,
2013-04-16 18:03:00,74.0,58.0,-100.00,South,176,10.0,13.0,57,0.00,,,0.00,,2013-04-16 22:03:00,
2013-04-16 18:13:00,74.0,58.0,-100.00,South,176,10.0,13.0,57,0.00,,,0.00,,2013-04-16 22:13:00,
2013-04-16 18:22:00,74.0,58.0,-100.00,SSE,155,8.0,14.0,57,0.00,,,0.00,,2013-04-16 22:22:00,
2013-04-16 18:33:00,74.0,58.0,-100.00,SSE,155,8.0,14.0,57,0.00,,,0.00,,2013-04-16 22:33:00,
2013-04-16 18:43:00,74.0,57.0,-100.00,South,181,8.0,11.0,54,0.00,,,0.00,,2013-04-16 22:43:00,
2013-04-16 18:52:00,74.0,57.0,-100.00,South,181,8.0,11.0,54,0.00,,,0.00,,2013-04-16 22:52:00,
2013-04-16 19:02:00,73.0,57.0,-100.00,South,171,10.0,14.0,56,0.00,,,0.00,,2013-04-16 23:02:00,
2013-04-16 19:12:00,73.0,57.0,-100.00,South,171,10.0,14.0,56,0.00,,,0.00,,2013-04-16 23:12:00,
2013-04-16 19:22:00,73.0,57.0,-100.00,SSE,158,11.0,15.0,57,0.00,,,0.00,,2013-04-16 23:22:00,
2013-04-16 19:32:00,73.0,57.0,-100.00,SSE,158,11.0,15.0,57,0.00,,,0.00,,2013-04-16 23:32:00,
2013-04-16 19:43:00,72.0,56.0,-100.00,South,169,9.0,13.0,57,0.00,,,0.00,,2013-04-16 23:43:00,
2013-04-16 19:52:00,72.0,56.0,-100.00,South,169,9.0,13.0,57,0.00,,,0.00,,2013-04-16 23:52:00,
2013-04-16 20:02:00,71.0,56.0,-100.00,South,169,8.0,10.0,58,0.00,,,0.00,,2013-04-17 00:02:00,
2013-04-16 20:12:00,71.0,56.0,-100.00,South,169,8.0,10.0,58,0.00,,,0.00,,2013-04-17 00:12:00,
2013-04-16 20:22:00,70.0,56.0,-100.00,SSE,162,8.0,11.0,60,0.00,,,0.00,,2013-04-17 00:22:00,
2013-04-16 20:32:00,70.0,56.0,-100.00,SSE,162,8.0,11.0,60,0.00,,,0.00,,2013-04-17 00:32:00,
2013-04-16 20:42:00,70.0,56.0,-100.00,SSE,165,7.0,10.0,61,0.00,,,0.00,,2013-04-17 00:42:00,
2013-04-16 20:52:00,70.0,56.0,-100.00,SSE,165,7.0,10.0,61,0.00,,,0.00,,2013-04-17 00:52:00,
2013-04-16 21:02:00,69.0,56.0,-100.00,SSE,168,7.0,11.0,63,0.00,,,0.00,,2013-04-17 01:02:00,
2013-04-16 21:12:00,69.0,56.0,-100.00,SSE,168,7.0,11.0,63,0.00,,,0.00,,2013-04-17 01:12:00,
2013-04-16 21:22:00,69.0,56.0,-100.00,South,172,9.0,12.0,63,0.00,,,0.00,,2013-04-17 01:22:00,
2013-04-16 21:32:00,69.0,56.0,-100.00,South,172,9.0,12.0,63,0.00,,,0.00,,2013-04-17 01:32:00,
2013-04-16 21:42:00,69.0,56.0,-100.00,South,174,8.0,10.0,64,0.00,,,0.00,,2013-04-17 01:42:00,
2013-04-16 21:52:00,69.0,56.0,-100.00,South,174,8.0,10.0,64,0.00,,,0.00,,2013-04-17 01:52:00,
2013-04-16 22:02:00,69.0,56.0,-100.00,South,174,8.0,10.0,64,0.00,,,0.00,,2013-04-17 02:02:00,
2013-04-16 22:22:00,67.0,56.0,-100.00,South,176,9.0,12.0,67,0.00,,,0.00,,2013-04-17 02:22:00,
2013-04-16 22:32:00,67.0,56.0,-100.00,South,176,9.0,12.0,67,0.00,,,0.00,,2013-04-17 02:32:00,
2013-04-16 22:42:00,67.0,56.0,-100.00,SSE,167,8.0,10.0,68,0.00,,,0.00,,2013-04-17 02:42:00,
2013-04-16 22:52:00,67.0,56.0,-100.00,SSE,167,8.0,10.0,68,0.00,,,0.00,,2013-04-17 02:52:00,
2013-04-16 23:02:00,67.0,56.0,-100.00,SSE,167,6.0,7.0,70,0.00,,,0.00,,2013-04-17 03:02:00,
2013-04-16 23:12:00,67.0,56.0,-100.00,SSE,167,6.0,7.0,70,0.00,,,0.00,,2013-04-17 03:12:00,
2013-04-16 23:22:00,66.0,56.0,-100.00,South,172,5.0,7.0,70,0.00,,,0.00,,2013-04-17 03:22:00,
2013-04-16 23:33:00,66.0,56.0,-100.00,South,172,5.0,7.0,70,0.00,,,0.00,,2013-04-17 03:33:00,
2013-04-16 23:42:00,66.0,57.0,-100.00,South,169,6.0,10.0,71,0.00,,,0.00,,2013-04-17 03:42:00,
2013-04-16 23:53:00,66.0,57.0,-100.00,South,169,6.0,10.0,71,0.00,,,0.00,,2013-04-17 03:53:00,